Time;durP1;ratioP1;P1;durP2;ratioP2;P2;SDS_P1;SDS_P2;PMS_P1;PMS_P2;Temp;Humidity;BMP_temperature;BMP_pressure;BME280_temperature;BME280_humidity;BME280_pressure;Samples;Min_cycle;Max_cycle;Signal;HPM_P1;HPM_P2
2023/08/16 00:00:55;;;;;;;12.73;9.70;;;15.80;89.30;;;;;;5091464;28;20032;-83
2023/08/16 00:03:21;;;;;;;13.70;10.95;;;15.80;89.20;;;;;;5074626;28;20047;-80
2023/08/16 00:05:47;;;;;;;18.20;14.20;;;15.70;88.90;;;;;;5091373;28;20040;-82
2023/08/16 00:08:13;;;;;;;15.10;13.50;;;15.60;89.80;;;;;;5091331;28;20047;-82
2023/08/16 00:10:38;;;;;;;19.00;15.80;;;15.60;90.00;;;;;;5091097;28;20048;-82
2023/08/16 00:13:04;;;;;;;18.38;13.35;;;15.60;89.60;;;;;;5091820;28;20081;-79
2023/08/16 00:15:30;;;;;;;13.52;11.73;;;15.60;89.90;;;;;;5091370;28;20115;-81
2023/08/16 00:17:55;;;;;;;15.75;12.52;;;15.50;90.00;;;;;;5054838;28;20119;-82
2023/08/16 00:20:24;;;;;;;16.80;12.20;;;15.50;89.80;;;;;;5057289;28;20073;-81
2023/08/16 00:22:50;;;;;;;16.75;13.15;;;15.60;89.70;;;;;;5074911;28;20392;-82
2023/08/16 00:25:16;;;;;;;15.27;12.48;;;15.60;89.50;;;;;;5091636;28;20130;-81
2023/08/16 00:27:41;;;;;;;15.13;12.80;;;15.60;89.70;;;;;;5091751;28;20127;-83
2023/08/16 00:30:08;;;;;;;10.60;9.00;;;15.60;89.70;;;;;;5074398;28;20066;-82
2023/08/16 00:32:34;;;;;;;11.00;8.00;;;15.50;89.80;;;;;;5076260;28;20493;-81
2023/08/16 00:35:00;;;;;;;8.90;6.50;;;15.50;89.60;;;;;;5094812;28;20040;-80
2023/08/16 00:37:26;;;;;;;12.85;8.45;;;15.40;89.40;;;;;;5061432;28;20028;-82
2023/08/16 00:39:52;;;;;;;8.45;7.57;;;15.40;89.40;;;;;;5094638;28;20484;-82
2023/08/16 00:42:17;;;;;;;8.57;7.18;;;15.40;89.40;;;;;;5061194;28;20036;-83
2023/08/16 00:44:43;;;;;;;9.95;6.85;;;15.40;89.30;;;;;;5077756;28;20040;-81
2023/08/16 00:47:09;;;;;;;8.57;6.68;;;15.40;89.30;;;;;;5078048;28;20088;-83
2023/08/16 00:49:37;;;;;;;7.43;6.55;;;15.30;89.20;;;;;;5077558;28;20559;-79
2023/08/16 00:52:04;;;;;;;9.98;6.97;;;15.20;89.10;;;;;;5094507;28;20476;-82
2023/08/16 00:54:30;;;;;;;7.90;6.32;;;15.30;89.10;;;;;;5094533;28;20040;-80
2023/08/16 00:56:58;;;;;;;9.25;7.53;;;15.20;89.40;;;;;;5094434;28;20032;-82
2023/08/16 00:59:26;;;;;;;9.70;6.90;;;15.20;89.30;;;;;;5077444;28;20040;-81
2023/08/16 01:01:52;;;;;;;8.90;7.40;;;15.30;89.50;;;;;;5094369;28;20040;-82
2023/08/16 01:04:19;;;;;;;11.63;8.77;;;15.20;89.50;;;;;;5094247;28;20043;-83
2023/08/16 01:06:44;;;;;;;16.23;10.73;;;15.20;89.60;;;;;;5094170;28;20036;-82
2023/08/16 01:09:10;;;;;;;13.40;10.93;;;15.20;89.50;;;;;;5060640;28;20036;-79
2023/08/16 01:11:48;;;;;;;17.25;11.27;;;15.20;89.60;;;;;;5077269;28;20032;-79
2023/08/16 01:14:21;;;;;;;17.60;12.35;;;15.30;89.80;;;;;;5094164;28;20503;-79
2023/08/16 01:16:49;;;;;;;16.75;12.27;;;15.30;89.80;;;;;;5094011;28;20036;-81
2023/08/16 01:19:28;;;;;;;14.52;12.32;;;15.20;89.70;;;;;;5077361;28;20082;-81
2023/08/16 01:22:04;;;;;;;14.73;11.60;;;15.30;89.90;;;;;;5077059;28;20515;-80
2023/08/16 01:24:53;;;;;;;12.23;10.65;;;15.20;90.00;;;;;;5093931;28;20040;-83
2023/08/16 01:27:21;;;;;;;12.38;8.65;;;15.30;90.00;;;;;;5093819;28;20047;-83
2023/08/16 01:29:49;;;;;;;7.57;5.18;;;15.30;90.00;;;;;;5044342;28;20039;-80
2023/08/16 01:32:15;;;;;;;6.47;4.78;;;15.10;89.60;;;;;;5077130;28;20454;-83
2023/08/16 01:34:41;;;;;;;6.75;4.93;;;15.00;89.40;;;;;;5076966;28;20036;-80
2023/08/16 01:37:07;;;;;;;6.53;5.15;;;15.00;89.30;;;;;;5060225;28;20042;-81
2023/08/16 01:39:33;;;;;;;5.53;4.60;;;15.00;89.30;;;;;;5093370;28;20060;-82
2023/08/16 01:42:00;;;;;;;6.78;4.82;;;14.90;89.20;;;;;;5043743;28;20047;-83
2023/08/16 01:44:27;;;;;;;6.88;4.90;;;14.90;89.20;;;;;;5093227;28;20044;-81
2023/08/16 01:46:54;;;;;;;7.45;5.10;;;14.90;89.10;;;;;;5076418;28;20086;-82
2023/08/16 01:49:21;;;;;;;5.20;4.70;;;15.00;89.10;;;;;;5076388;28;20071;-82
2023/08/16 01:51:47;;;;;;;7.28;4.57;;;15.00;89.10;;;;;;5076757;28;20385;-83
2023/08/16 01:54:13;;;;;;;4.90;4.00;;;15.00;88.90;;;;;;5093545;28;20040;-82
2023/08/16 01:56:39;;;;;;;5.43;3.85;;;15.00;88.90;;;;;;5076456;28;20492;-82
2023/08/16 01:59:04;;;;;;;4.55;3.30;;;15.00;88.90;;;;;;5076500;28;20031;-81
2023/08/16 02:01:30;;;;;;;3.90;3.50;;;14.90;89.00;;;;;;5076294;28;20075;-81
2023/08/16 02:03:56;;;;;;;2.75;2.47;;;14.90;89.10;;;;;;5043287;28;20118;-79
2023/08/16 02:06:22;;;;;;;3.38;2.80;;;14.90;89.00;;;;;;5076521;28;20044;-80
2023/08/16 02:08:48;;;;;;;3.35;3.05;;;14.80;89.00;;;;;;5093039;28;20514;-81
2023/08/16 02:11:13;;;;;;;2.72;2.53;;;14.80;89.00;;;;;;5059427;28;20130;-81
2023/08/16 02:13:39;;;;;;;2.90;2.53;;;14.70;89.00;;;;;;5076282;28;20131;-81
2023/08/16 02:16:05;;;;;;;3.05;2.78;;;14.80;89.00;;;;;;5059445;28;20412;-83
2023/08/16 02:18:31;;;;;;;3.78;3.38;;;14.80;88.90;;;;;;5059626;28;20044;-81
2023/08/16 02:20:57;;;;;;;6.18;3.70;;;14.70;88.90;;;;;;5092841;28;20040;-82
2023/08/16 02:23:23;;;;;;;3.85;3.55;;;14.70;88.90;;;;;;5092644;28;20050;-83
2023/08/16 02:25:49;;;;;;;5.50;3.75;;;14.60;89.00;;;;;;5059609;28;20090;-79
2023/08/16 02:28:15;;;;;;;4.80;4.30;;;14.70;89.00;;;;;;5076215;28;20052;-80
2023/08/16 02:30:41;;;;;;;4.68;3.83;;;14.70;89.20;;;;;;5075769;28;20481;-81
2023/08/16 02:33:10;;;;;;;3.10;2.80;;;14.70;89.20;;;;;;5092540;28;20047;-81
2023/08/16 02:35:41;;;;;;;3.55;2.97;;;14.60;88.90;;;;;;5058861;28;20038;-82
2023/08/16 02:38:12;;;;;;;4.07;2.92;;;14.50;88.80;;;;;;5059102;28;20084;-79
2023/08/16 02:40:38;;;;;;;3.28;2.55;;;14.40;88.70;;;;;;5076624;28;20511;-82
2023/08/16 02:43:04;;;;;;;3.97;3.10;;;14.30;88.70;;;;;;5055456;28;20036;-80
2023/08/16 02:45:29;;;;;;;2.80;2.60;;;14.20;88.80;;;;;;5042369;28;20534;-82
2023/08/16 02:47:57;;;;;;;3.20;2.90;;;14.20;88.80;;;;;;5059138;28;20044;-80
2023/08/16 02:50:22;;;;;;;3.92;3.05;;;14.20;88.80;;;;;;5042821;28;20044;-84
2023/08/16 02:52:48;;;;;;;3.20;2.90;;;14.20;88.80;;;;;;5058967;28;20043;-81
2023/08/16 02:55:14;;;;;;;3.97;3.15;;;14.10;88.80;;;;;;5075230;28;20075;-79
2023/08/16 02:57:40;;;;;;;4.35;3.00;;;14.00;88.80;;;;;;5042249;28;20542;-78
2023/08/16 03:00:09;;;;;;;4.95;3.35;;;14.00;88.90;;;;;;5073756;28;20030;-79
2023/08/16 03:02:35;;;;;;;17.20;3.80;;;14.00;88.90;;;;;;5102388;28;20028;-80
2023/08/16 03:05:00;;;;;;;3.65;3.00;;;14.00;88.90;;;;;;5068483;28;20058;-82
2023/08/16 03:07:26;;;;;;;5.82;3.95;;;14.00;88.90;;;;;;5101726;28;20043;-81
2023/08/16 03:09:52;;;;;;;4.05;3.45;;;14.00;88.90;;;;;;5118465;28;20051;-83
2023/08/16 03:12:17;;;;;;;4.10;3.70;;;14.00;89.00;;;;;;5118537;28;20028;-80
2023/08/16 03:14:43;;;;;;;5.55;3.47;;;14.00;89.00;;;;;;5101733;28;20099;-79
2023/08/16 03:17:09;;;;;;;6.55;3.60;;;14.00;89.00;;;;;;5084885;28;20042;-80
2023/08/16 03:19:34;;;;;;;3.80;3.40;;;14.00;89.10;;;;;;5101330;28;20028;-79
2023/08/16 03:22:00;;;;;;;6.13;3.50;;;14.00;89.00;;;;;;5098244;28;20127;-82
2023/08/16 03:24:26;;;;;;;3.85;3.42;;;14.00;89.00;;;;;;5080038;28;20419;-81
2023/08/16 03:26:52;;;;;;;4.85;3.38;;;14.00;89.00;;;;;;5062494;28;20032;-81
2023/08/16 03:29:19;;;;;;;4.20;3.80;;;14.00;88.90;;;;;;5095541;28;20036;-83
2023/08/16 03:31:45;;;;;;;4.63;3.75;;;14.00;89.00;;;;;;5095248;28;20071;-83
2023/08/16 03:34:11;;;;;;;5.25;3.65;;;14.00;89.00;;;;;;5079724;28;20040;-80
2023/08/16 03:36:36;;;;;;;4.50;3.92;;;14.00;89.10;;;;;;5094615;28;20107;-81
2023/08/16 03:39:05;;;;;;;4.05;3.65;;;14.00;89.10;;;;;;5076768;28;20098;-79
2023/08/16 03:41:33;;;;;;;3.70;3.28;;;13.90;89.20;;;;;;5075840;28;20102;-83
2023/08/16 03:43:59;;;;;;;7.07;3.22;;;14.00;89.10;;;;;;5075101;28;20094;-82
2023/08/16 03:46:25;;;;;;;3.95;2.50;;;13.90;89.20;;;;;;5091943;28;20051;-81
2023/08/16 03:48:51;;;;;;;3.65;2.45;;;13.80;89.20;;;;;;5075078;28;20487;-81
2023/08/16 03:51:16;;;;;;;2.85;2.58;;;13.80;89.30;;;;;;5074758;28;20036;-78
2023/08/16 03:53:42;;;;;;;3.38;2.90;;;13.70;89.30;;;;;;5074935;28;20040;-80
2023/08/16 03:56:08;;;;;;;3.63;3.20;;;13.70;89.40;;;;;;5075075;28;20071;-81
2023/08/16 03:58:33;;;;;;;4.38;2.85;;;13.70;89.50;;;;;;5074805;28;20507;-81
2023/08/16 04:00:59;;;;;;;2.95;2.65;;;13.70;89.50;;;;;;5058326;28;20047;-82
2023/08/16 04:03:25;;;;;;;2.50;2.10;;;13.70;89.60;;;;;;5091614;28;20044;-79
2023/08/16 04:05:50;;;;;;;3.13;2.00;;;13.70;89.60;;;;;;5059178;28;20046;-82
2023/08/16 04:08:16;;;;;;;2.38;2.17;;;13.70;89.70;;;;;;5078083;28;20487;-81
2023/08/16 04:10:42;;;;;;;2.15;1.83;;;13.70;89.60;;;;;;5077788;28;20040;-82
2023/08/16 04:13:08;;;;;;;4.68;1.98;;;13.60;89.50;;;;;;5078334;28;20173;-81
2023/08/16 04:15:33;;;;;;;3.63;1.98;;;13.60;89.60;;;;;;5078446;28;20133;-82
2023/08/16 04:17:59;;;;;;;2.65;2.08;;;13.70;89.70;;;;;;5078280;28;20040;-85
2023/08/16 04:20:25;;;;;;;1.50;1.25;;;13.70;89.70;;;;;;5045288;28;20094;-80
2023/08/16 04:22:51;;;;;;;2.30;1.20;;;13.60;89.70;;;;;;5078613;28;20127;-80
2023/08/16 04:25:17;;;;;;;1.10;1.00;;;13.50;89.50;;;;;;5078122;28;20047;-80
2023/08/16 04:27:43;;;;;;;1.30;1.20;;;13.50;89.30;;;;;;5078079;28;20036;-80
2023/08/16 04:30:10;;;;;;;1.23;0.90;;;13.30;89.10;;;;;;5078096;28;20043;-82
2023/08/16 04:32:36;;;;;;;2.90;2.25;;;13.20;89.20;;;;;;5078341;28;20098;-81
2023/08/16 04:35:03;;;;;;;4.30;3.10;;;13.20;89.50;;;;;;5078196;28;20415;-82
2023/08/16 04:37:28;;;;;;;5.32;3.83;;;13.30;89.80;;;;;;5078135;28;20082;-81
2023/08/16 04:39:54;;;;;;;5.63;3.97;;;13.30;90.00;;;;;;5061885;28;20087;-81
2023/08/16 04:42:20;;;;;;;4.68;3.88;;;13.40;90.20;;;;;;5095688;28;20048;-82
2023/08/16 04:44:47;;;;;;;4.95;3.40;;;13.40;90.30;;;;;;5098929;28;20047;-82
2023/08/16 04:47:13;;;;;;;4.07;3.67;;;13.50;90.50;;;;;;5095599;28;20043;-82
2023/08/16 04:49:41;;;;;;;4.45;4.05;;;13.50;90.50;;;;;;5061494;28;20052;-83
2023/08/16 04:52:07;;;;;;;3.88;3.53;;;13.60;90.70;;;;;;5094899;28;20046;-80
2023/08/16 04:54:33;;;;;;;2.83;2.38;;;13.60;90.80;;;;;;5078042;28;20123;-79
2023/08/16 04:56:59;;;;;;;3.17;2.88;;;13.70;90.80;;;;;;5078274;28;20483;-79
2023/08/16 04:59:25;;;;;;;5.60;4.13;;;13.70;90.70;;;;;;5077425;28;20036;-81
2023/08/16 05:01:50;;;;;;;3.72;3.38;;;13.70;90.80;;;;;;5077544;28;20040;-80
2023/08/16 05:04:16;;;;;;;4.03;3.63;;;13.70;90.90;;;;;;5077758;28;20032;-80
2023/08/16 05:06:42;;;;;;;4.00;3.40;;;13.80;91.00;;;;;;5060873;28;20561;-81
2023/08/16 05:09:08;;;;;;;5.38;4.53;;;13.90;91.00;;;;;;5077775;28;20079;-81
2023/08/16 05:11:33;;;;;;;4.28;3.88;;;13.90;91.10;;;;;;5077317;28;20411;-81
2023/08/16 05:13:59;;;;;;;4.03;3.67;;;14.00;91.10;;;;;;5061053;28;20036;-80
2023/08/16 05:16:25;;;;;;;4.45;3.60;;;14.00;91.20;;;;;;5077454;28;20500;-82
2023/08/16 05:18:52;;;;;;;6.25;4.60;;;14.10;91.20;;;;;;5059908;28;20377;-80
2023/08/16 05:21:19;;;;;;;4.03;3.72;;;14.20;91.20;;;;;;5077442;28;20055;-79
2023/08/16 05:23:44;;;;;;;4.70;4.25;;;14.20;91.00;;;;;;5094036;28;20051;-81
2023/08/16 05:26:10;;;;;;;3.85;3.55;;;14.30;91.10;;;;;;5077336;28;20044;-80
2023/08/16 05:28:36;;;;;;;5.25;4.75;;;14.30;91.10;;;;;;5077353;28;20482;-81
2023/08/16 05:31:09;;;;;;;4.93;4.07;;;14.30;91.00;;;;;;5076900;28;20123;-79
2023/08/16 05:33:35;;;;;;;5.13;3.97;;;14.40;91.00;;;;;;5076814;28;20494;-80
2023/08/16 05:36:00;;;;;;;5.60;4.47;;;14.40;91.10;;;;;;5076832;28;20058;-78
2023/08/16 05:38:26;;;;;;;5.45;4.95;;;14.50;91.10;;;;;;5076859;28;20480;-79
2023/08/16 05:40:52;;;;;;;5.43;4.88;;;14.50;91.20;;;;;;5059935;28;20485;-83
2023/08/16 05:43:18;;;;;;;5.60;5.07;;;14.60;91.30;;;;;;5093453;28;20044;-82
2023/08/16 05:45:44;;;;;;;6.05;4.43;;;14.60;91.30;;;;;;5076626;28;20067;-79
2023/08/16 05:48:10;;;;;;;6.78;4.70;;;14.70;91.40;;;;;;5076776;28;20051;-79
2023/08/16 05:50:36;;;;;;;4.10;3.80;;;14.70;91.70;;;;;;5093230;28;20112;-81
2023/08/16 05:53:03;;;;;;;5.15;4.13;;;14.80;91.80;;;;;;5076631;28;20505;-79
2023/08/16 05:55:28;;;;;;;5.25;4.13;;;14.80;91.60;;;;;;5076477;28;20169;-82
2023/08/16 05:57:54;;;;;;;5.32;4.45;;;14.80;91.60;;;;;;5076314;28;20115;-82
2023/08/16 06:00:20;;;;;;;4.65;3.67;;;14.80;91.70;;;;;;5043124;28;20047;-80
2023/08/16 06:02:46;;;;;;;4.45;2.78;;;14.90;91.70;;;;;;5093457;28;20067;-80
2023/08/16 06:05:12;;;;;;;5.57;4.22;;;15.00;91.60;;;;;;5076374;28;20036;-80
2023/08/16 06:07:37;;;;;;;4.50;4.10;;;15.00;91.50;;;;;;5076614;28;20492;-81
2023/08/16 06:10:05;;;;;;;5.10;4.63;;;15.10;91.50;;;;;;5076557;28;20489;-80
2023/08/16 06:12:30;;;;;;;7.20;5.45;;;15.20;91.70;;;;;;5076640;28;20044;-82
2023/08/16 06:14:56;;;;;;;6.70;5.60;;;15.30;91.80;;;;;;5094085;28;20127;-83
2023/08/16 06:17:22;;;;;;;8.25;6.43;;;15.40;91.70;;;;;;5077032;28;20489;-81
2023/08/16 06:19:47;;;;;;;7.10;6.28;;;15.50;91.80;;;;;;5076044;28;20508;-79
2023/08/16 06:22:13;;;;;;;7.05;6.32;;;15.60;91.70;;;;;;5075771;28;20046;-80
2023/08/16 06:24:39;;;;;;;9.55;6.70;;;15.70;91.80;;;;;;5075641;28;20074;-80
2023/08/16 06:27:08;;;;;;;8.32;6.75;;;15.80;91.70;;;;;;5092584;28;20142;-79
2023/08/16 06:29:35;;;;;;;8.90;7.90;;;15.90;91.80;;;;;;5091716;28;20054;-79
2023/08/16 06:32:02;;;;;;;10.43;8.15;;;16.00;91.60;;;;;;5092891;28;20123;-80
2023/08/16 06:34:27;;;;;;;11.75;8.00;;;16.10;91.80;;;;;;5092565;28;20036;-81
2023/08/16 06:36:53;;;;;;;12.05;8.27;;;16.30;91.70;;;;;;5075494;28;20122;-79
2023/08/16 06:39:19;;;;;;;12.55;8.07;;;16.30;91.70;;;;;;5092718;28;20067;-79
2023/08/16 06:41:45;;;;;;;10.95;8.43;;;16.40;91.80;;;;;;5059574;28;20055;-80
2023/08/16 06:44:10;;;;;;;9.30;8.00;;;16.50;91.80;;;;;;5093264;28;20044;-80
2023/08/16 06:46:36;;;;;;;10.13;8.73;;;16.70;91.60;;;;;;5076327;28;20040;-79
2023/08/16 06:49:03;;;;;;;11.38;8.27;;;16.80;92.10;;;;;;5076693;28;20040;-80
2023/08/16 06:51:29;;;;;;;9.50;7.03;;;16.90;91.80;;;;;;5077782;28;20480;-79
2023/08/16 06:53:55;;;;;;;9.10;8.20;;;17.00;91.60;;;;;;5076524;28;20051;-81
2023/08/16 06:56:20;;;;;;;13.65;7.93;;;17.10;91.80;;;;;;5076652;28;20040;-80
2023/08/16 06:58:46;;;;;;;11.13;8.02;;;17.20;91.80;;;;;;5075903;28;20063;-80
2023/08/16 07:01:12;;;;;;;7.82;6.57;;;17.30;91.70;;;;;;5092818;28;20096;-81
2023/08/16 07:03:37;;;;;;;7.80;7.00;;;17.50;91.60;;;;;;5092714;28;20044;-79
2023/08/16 07:06:03;;;;;;;9.10;7.47;;;17.50;91.70;;;;;;5083630;28;20058;-81
2023/08/16 07:08:29;;;;;;;9.98;7.18;;;17.60;91.30;;;;;;5071845;28;21248;-80
2023/08/16 07:10:55;;;;;;;6.03;4.35;;;17.80;91.30;;;;;;5071073;28;20587;-81
2023/08/16 07:13:20;;;;;;;5.30;4.50;;;17.90;91.10;;;;;;5086887;28;20093;-82
2023/08/16 07:15:46;;;;;;;7.35;5.80;;;18.00;90.80;;;;;;5071899;28;20035;-82
2023/08/16 07:18:12;;;;;;;10.60;6.65;;;18.00;90.70;;;;;;5089742;28;20039;-83
2023/08/16 07:20:38;;;;;;;9.70;6.28;;;18.10;90.60;;;;;;5072717;28;20117;-81
2023/08/16 07:23:06;;;;;;;7.15;5.72;;;18.10;90.40;;;;;;5039283;28;20051;-82
2023/08/16 07:25:32;;;;;;;7.80;5.97;;;18.20;90.30;;;;;;5055546;28;20079;-83
2023/08/16 07:27:58;;;;;;;7.35;5.85;;;18.30;90.20;;;;;;5072699;28;20048;-82
2023/08/16 07:30:24;;;;;;;10.15;6.25;;;18.40;90.00;;;;;;5055747;28;20047;-83
2023/08/16 07:32:50;;;;;;;6.68;4.82;;;18.50;89.80;;;;;;5090086;28;20036;-80
2023/08/16 07:35:16;;;;;;;8.50;5.25;;;18.50;89.60;;;;;;5072904;28;20051;-83
2023/08/16 07:37:43;;;;;;;9.52;6.70;;;18.50;89.40;;;;;;5089557;28;20036;-82
2023/08/16 07:40:10;;;;;;;6.35;4.20;;;18.60;89.10;;;;;;5054881;28;20052;-84
2023/08/16 07:42:36;;;;;;;8.15;5.35;;;18.70;89.00;;;;;;5093575;28;20051;-82
2023/08/16 07:45:03;;;;;;;11.45;5.45;;;18.80;88.70;;;;;;5089514;28;20040;-81
2023/08/16 07:47:30;;;;;;;5.97;5.18;;;18.90;88.40;;;;;;5076627;28;20048;-82
2023/08/16 07:49:55;;;;;;;9.60;4.88;;;18.90;88.20;;;;;;5093724;28;20048;-82
2023/08/16 07:52:21;;;;;;;6.68;4.53;;;19.10;87.50;;;;;;5076463;28;20408;-82
2023/08/16 07:54:47;;;;;;;8.15;5.10;;;19.20;87.50;;;;;;5075955;28;20488;-80
2023/08/16 07:57:13;;;;;;;4.95;3.88;;;19.30;87.00;;;;;;5073126;28;20068;-82
2023/08/16 07:59:41;;;;;;;6.25;3.50;;;19.30;86.60;;;;;;5072592;28;20505;-82
2023/08/16 08:02:07;;;;;;;7.57;3.92;;;19.40;86.70;;;;;;5093234;28;20036;-82
2023/08/16 08:04:33;;;;;;;5.88;5.13;;;19.40;86.30;;;;;;5076258;28;20047;-81
2023/08/16 08:06:59;;;;;;;5.13;4.22;;;19.40;86.20;;;;;;5069058;28;20062;-83
2023/08/16 08:09:26;;;;;;;7.50;5.22;;;19.50;86.20;;;;;;5073512;28;20104;-83
2023/08/16 08:11:51;;;;;;;9.20;4.70;;;19.50;85.90;;;;;;5085791;28;20036;-82
2023/08/16 08:14:17;;;;;;;8.63;5.05;;;19.60;85.30;;;;;;5066622;28;20046;-83
2023/08/16 08:16:44;;;;;;;6.95;4.88;;;19.80;85.00;;;;;;5074196;28;20028;-81
2023/08/16 08:19:09;;;;;;;9.70;5.22;;;19.80;84.10;;;;;;5088872;28;20138;-81
2023/08/16 08:21:35;;;;;;;10.40;5.80;;;20.00;84.10;;;;;;5073285;28;20119;-83
2023/08/16 08:24:01;;;;;;;7.13;5.00;;;20.00;83.90;;;;;;5059092;28;20044;-84
2023/08/16 08:26:27;;;;;;;5.90;3.97;;;20.20;83.60;;;;;;5092027;28;20044;-83
2023/08/16 08:28:52;;;;;;;4.57;3.75;;;20.40;83.10;;;;;;5076013;28;21228;-82
2023/08/16 08:31:18;;;;;;;5.70;3.83;;;20.40;82.40;;;;;;5071917;28;20389;-81
2023/08/16 08:33:46;;;;;;;8.25;3.78;;;20.50;81.90;;;;;;5049817;28;20043;-82
2023/08/16 08:36:12;;;;;;;5.03;3.47;;;20.70;81.70;;;;;;5052792;28;20085;-81
2023/08/16 08:38:38;;;;;;;6.97;5.10;;;20.90;81.60;;;;;;5070138;28;20044;-81
2023/08/16 08:41:06;;;;;;;5.32;3.80;;;20.90;80.80;;;;;;5070107;28;20097;-82
2023/08/16 08:43:36;;;;;;;5.68;3.65;;;21.00;80.40;;;;;;5086308;28;20047;-80
2023/08/16 08:46:04;;;;;;;6.45;3.55;;;21.20;80.00;;;;;;5084835;28;20123;-80
2023/08/16 08:48:30;;;;;;;5.85;3.35;;;21.20;79.90;;;;;;5069723;28;20043;-80
2023/08/16 08:50:57;;;;;;;4.40;3.00;;;21.20;79.40;;;;;;5086366;28;20126;-80
2023/08/16 08:53:25;;;;;;;7.03;3.10;;;21.30;79.40;;;;;;5051757;28;20048;-79
2023/08/16 08:55:56;;;;;;;6.03;3.10;;;21.30;79.20;;;;;;5085058;28;20045;-80
2023/08/16 08:58:24;;;;;;;5.60;2.30;;;21.30;77.80;;;;;;5069438;28;20046;-79
2023/08/16 09:00:52;;;;;;;4.85;2.10;;;21.40;77.40;;;;;;5069806;28;20433;-80
2023/08/16 09:03:22;;;;;;;6.00;2.28;;;21.60;75.50;;;;;;5069871;28;20035;-79
2023/08/16 09:05:52;;;;;;;5.30;2.25;;;21.60;74.70;;;;;;5068336;28;20048;-79
2023/08/16 09:08:19;;;;;;;3.70;2.35;;;21.60;73.50;;;;;;5085404;28;20128;-84
2023/08/16 09:10:45;;;;;;;5.90;2.55;;;21.60;73.50;;;;;;5069764;28;20090;-83
2023/08/16 09:13:12;;;;;;;3.35;2.50;;;21.70;73.90;;;;;;5069454;28;20124;-82
2023/08/16 09:15:38;;;;;;;5.05;2.58;;;21.80;74.50;;;;;;5068296;28;20514;-81
2023/08/16 09:18:12;;;;;;;5.53;3.70;;;21.90;74.60;;;;;;5048017;28;20044;-84
2023/08/16 09:20:38;;;;;;;;;;;22.00;74.20;;;;;;5053743;28;20129;-80
2023/08/16 09:23:04;;;;;;;3.95;2.50;;;22.00;73.40;;;;;;5086234;28;19973;-80
2023/08/16 09:25:31;;;;;;;4.90;2.80;;;22.10;73.90;;;;;;5067950;28;20556;-82
2023/08/16 09:27:57;;;;;;;3.55;2.10;;;22.30;73.60;;;;;;5069339;28;20056;-85
2023/08/16 09:30:26;;;;;;;4.07;2.15;;;22.40;73.80;;;;;;5052510;28;20071;-83
2023/08/16 09:32:53;;;;;;;7.90;3.22;;;22.60;73.10;;;;;;5085909;28;20097;-80
2023/08/16 09:35:26;;;;;;;3.13;2.30;;;22.70;72.80;;;;;;5068013;28;20089;-83
2023/08/16 09:37:58;;;;;;;5.15;2.28;;;22.80;72.50;;;;;;5053776;28;20051;-82
2023/08/16 09:40:24;;;;;;;3.70;2.40;;;22.90;71.40;;;;;;5085561;28;20508;-81
2023/08/16 09:42:51;;;;;;;6.63;2.40;;;22.90;70.70;;;;;;5069272;28;20051;-83
2023/08/16 09:45:32;;;;;;;2.38;2.03;;;23.00;70.50;;;;;;5067653;28;20574;-81
2023/08/16 09:48:00;;;;;;;3.05;1.58;;;23.10;70.10;;;;;;5069112;28;20040;-81
2023/08/16 09:50:33;;;;;;;4.35;2.15;;;23.30;70.40;;;;;;5092106;28;20369;-80
2023/08/16 09:53:01;;;;;;;5.32;2.05;;;23.50;70.00;;;;;;5095171;28;20119;-81
2023/08/16 09:55:30;;;;;;;4.05;2.17;;;23.60;69.40;;;;;;5081137;28;20096;-80
2023/08/16 09:57:58;;;;;;;9.18;3.05;;;23.60;69.00;;;;;;5093247;28;20072;-80
2023/08/16 10:00:27;;;;;;;3.88;1.80;;;23.50;69.10;;;;;;5076937;28;20488;-81
2023/08/16 10:02:53;;;;;;;4.07;1.80;;;23.30;69.10;;;;;;5077188;28;20176;-82
2023/08/16 10:05:19;;;;;;;3.92;1.50;;;23.10;69.30;;;;;;5094095;28;20043;-79
2023/08/16 10:07:47;;;;;;;2.65;1.50;;;22.90;69.50;;;;;;5093716;28;20146;-80
2023/08/16 10:10:14;;;;;;;4.35;2.38;;;23.00;69.50;;;;;;5076343;28;20195;-83
2023/08/16 10:12:41;;;;;;;4.80;2.13;;;23.20;69.30;;;;;;5059699;28;20072;-81
2023/08/16 10:15:08;;;;;;;2.85;1.60;;;23.40;68.40;;;;;;5075483;28;20608;-80
2023/08/16 10:17:38;;;;;;;2.28;1.65;;;23.50;68.50;;;;;;5059407;28;20130;-80
2023/08/16 10:20:07;;;;;;;2.30;1.52;;;23.80;68.50;;;;;;5075948;28;20043;-79
2023/08/16 10:22:38;;;;;;;2.10;1.77;;;24.00;67.90;;;;;;5076819;28;20071;-83
2023/08/16 10:25:16;;;;;;;4.97;2.00;;;24.10;66.50;;;;;;5059415;28;20515;-79
2023/08/16 10:27:44;;;;;;;4.88;2.10;;;24.20;66.00;;;;;;5092837;28;20055;-79
2023/08/16 10:30:19;;;;;;;3.95;2.25;;;24.40;66.90;;;;;;5075876;28;20046;-81
2023/08/16 10:32:47;;;;;;;3.58;1.75;;;24.50;66.80;;;;;;5092990;28;20051;-80
2023/08/16 10:35:14;;;;;;;3.38;1.60;;;24.70;66.30;;;;;;5092736;28;20051;-82
2023/08/16 10:37:41;;;;;;;2.88;1.65;;;24.90;65.00;;;;;;5054637;28;20044;-80
2023/08/16 10:40:17;;;;;;;2.05;1.50;;;25.00;64.70;;;;;;5067923;28;20482;-83
2023/08/16 10:43:09;;;;;;;4.72;2.00;;;25.10;63.30;;;;;;5066995;28;20055;-80
2023/08/16 10:45:35;;;;;;;3.58;2.03;;;25.20;62.10;;;;;;5048482;28;20113;-84
2023/08/16 10:48:10;;;;;;;2.45;1.50;;;25.30;63.70;;;;;;5041001;28;20036;-80
2023/08/16 10:50:36;;;;;;;1.83;1.55;;;25.40;63.20;;;;;;5084486;28;20063;-84
2023/08/16 10:53:04;;;;;;;2.85;1.83;;;25.60;63.20;;;;;;5083409;28;20063;-81
2023/08/16 10:55:30;;;;;;;2.78;1.83;;;25.80;63.10;;;;;;5066944;28;20036;-82
2023/08/16 10:57:55;;;;;;;4.10;2.03;;;25.90;62.80;;;;;;5085033;28;20040;-81
2023/08/16 11:00:32;;;;;;;4.43;1.60;;;26.00;61.90;;;;;;5067801;28;20048;-81
2023/08/16 11:03:01;;;;;;;2.60;1.40;;;26.20;60.70;;;;;;5081901;28;20056;-82
2023/08/16 11:05:30;;;;;;;2.60;1.58;;;26.30;61.10;;;;;;5085039;28;20080;-81
2023/08/16 11:08:01;;;;;;;4.40;1.75;;;26.40;60.00;;;;;;5084321;28;20076;-84
2023/08/16 11:10:39;;;;;;;3.00;1.65;;;26.40;59.30;;;;;;5084694;28;20204;-81
2023/08/16 11:13:13;;;;;;;3.80;1.88;;;26.40;58.80;;;;;;5066162;28;20043;-83
2023/08/16 11:15:42;;;;;;;3.03;1.73;;;26.60;60.20;;;;;;5066743;28;20048;-82
2023/08/16 11:18:08;;;;;;;4.18;2.20;;;26.70;60.00;;;;;;5067505;28;20101;-81
2023/08/16 11:20:34;;;;;;;3.60;1.70;;;26.80;57.60;;;;;;5067121;28;20044;-81
2023/08/16 11:23:00;;;;;;;4.25;2.17;;;26.60;59.00;;;;;;5082862;28;20086;-81
2023/08/16 11:25:33;;;;;;;3.60;1.83;;;26.20;60.70;;;;;;5067572;28;20075;-81
2023/08/16 11:28:05;;;;;;;2.78;1.80;;;25.80;61.50;;;;;;5084379;28;20040;-85
2023/08/16 11:30:32;;;;;;;3.97;2.03;;;25.40;62.10;;;;;;5066918;28;20043;-82
2023/08/16 11:33:00;;;;;;;2.65;1.65;;;25.40;62.30;;;;;;5082589;28;20036;-81
2023/08/16 11:35:26;;;;;;;4.10;1.98;;;25.50;61.80;;;;;;5067555;28;20055;-82
2023/08/16 11:37:52;;;;;;;3.45;2.10;;;25.80;61.50;;;;;;5062168;28;20048;-81
2023/08/16 11:40:24;;;;;;;2.45;1.55;;;25.90;60.80;;;;;;5084034;28;20481;-81
2023/08/16 11:42:53;;;;;;;1.95;1.30;;;26.20;60.80;;;;;;5065935;28;20162;-82
2023/08/16 11:45:25;;;;;;;1.73;1.25;;;26.50;59.20;;;;;;5063154;28;20044;-83
2023/08/16 11:47:54;;;;;;;5.18;1.80;;;26.60;58.30;;;;;;5083857;28;20576;-82
2023/08/16 11:50:26;;;;;;;1.77;1.17;;;26.80;57.20;;;;;;5084343;28;20126;-84
2023/08/16 11:52:59;;;;;;;2.88;1.20;;;26.90;55.70;;;;;;5083462;28;20095;-80
2023/08/16 11:55:25;;;;;;;2.05;1.35;;;27.20;54.10;;;;;;5084611;28;20032;-80
2023/08/16 11:57:53;;;;;;;3.45;1.20;;;27.50;55.30;;;;;;5067613;28;20048;-83
2023/08/16 12:00:26;;;;;;;3.30;1.48;;;27.30;54.90;;;;;;5084527;28;20058;-81
2023/08/16 12:02:52;;;;;;;1.85;1.63;;;27.00;54.80;;;;;;5049002;28;20058;-81
2023/08/16 12:05:17;;;;;;;2.58;1.30;;;26.60;54.60;;;;;;5084134;28;20044;-80
2023/08/16 12:07:47;;;;;;;2.72;1.33;;;26.40;56.00;;;;;;5049989;28;20504;-81
2023/08/16 12:10:27;;;;;;;3.90;1.33;;;26.00;57.20;;;;;;5083616;28;20047;-81
2023/08/16 12:12:56;;;;;;;3.85;1.33;;;25.80;58.60;;;;;;5065928;28;20152;-81
2023/08/16 12:15:23;;;;;;;2.95;1.30;;;25.60;58.90;;;;;;5066566;28;20048;-79
2023/08/16 12:17:49;;;;;;;3.58;1.33;;;25.40;59.00;;;;;;5050255;28;20079;-81
2023/08/16 12:20:15;;;;;;;2.67;1.20;;;25.30;59.10;;;;;;5084045;28;20056;-80
2023/08/16 12:22:41;;;;;;;3.72;1.50;;;25.60;58.40;;;;;;5082083;28;20051;-80
2023/08/16 12:25:07;;;;;;;3.97;1.23;;;25.90;58.50;;;;;;5083462;28;20044;-80
2023/08/16 12:27:33;;;;;;;2.63;1.20;;;26.30;57.30;;;;;;5067113;28;20054;-83
2023/08/16 12:29:59;;;;;;;3.10;1.63;;;26.60;56.50;;;;;;5051875;28;20392;-81
2023/08/16 12:32:25;;;;;;;4.53;1.55;;;26.90;55.50;;;;;;5069333;28;20059;-80
2023/08/16 12:34:50;;;;;;;2.03;1.27;;;26.70;55.30;;;;;;5054812;28;20048;-81
2023/08/16 12:37:16;;;;;;;1.65;1.00;;;26.40;56.20;;;;;;5087062;28;20069;-82
2023/08/16 12:39:42;;;;;;;4.63;1.10;;;26.00;56.80;;;;;;5053341;28;20055;-82
2023/08/16 12:42:07;;;;;;;2.65;1.33;;;25.90;56.80;;;;;;5052446;28;20052;-81
2023/08/16 12:44:33;;;;;;;2.30;1.00;;;26.10;55.90;;;;;;5069906;28;20139;-80